This is the latest recevied weather packets stored in our database for station/object KC5EZZ-2. If no packets are shown the sender has not sent any weather packets the latest 1 day(s).
| Time | Temp. | Humidity | Pressure | Rain* | Wind** | Luminosity | Snow |
|---|---|---|---|---|---|---|---|
| 1777971800 | 20.56° C | - | - | 0 mm | 4.02 m/s, 194° | - | - |
| 1777971497 | 20.56° C | - | - | 0 mm | 4.02 m/s, 198° | - | - |
| 1777971198 | 20.56° C | - | - | 0 mm | 5.36 m/s, 201° | - | - |
| 1777970898 | 20.56° C | - | - | 0 mm | 3.58 m/s, 219° | - | - |
| 1777970596 | 21.11° C | - | - | 0 mm | 3.58 m/s, 205° | - | - |
| 1777970296 | 21.11° C | - | - | 0 mm | 5.36 m/s, 176° | - | - |
| 1777969997 | 21.11° C | - | - | 0 mm | 4.92 m/s, 211° | - | - |
| 1777969694 | 21.11° C | - | - | 0 mm | 4.02 m/s, 207° | - | - |
| 1777969430 | 21.11° C | - | - | 0 mm | 4.02 m/s, 194° | - | - |
| 1777969396 | 21.11° C | - | - | 0 mm | 4.02 m/s, 194° | - | - |
| 1777969137 | 21.11° C | - | - | 0 mm | 4.47 m/s, 170° | - | - |
| 1777969095 | 21.11° C | - | - | 0 mm | 4.47 m/s, 170° | - | - |
| 1777968793 | 21.11° C | - | - | 0 mm | 5.36 m/s, 173° | - | - |
| 1777968493 | 21.11° C | - | - | 0 mm | 4.47 m/s, 207° | - | - |
| 1777968194 | 21.11° C | - | - | 0 mm | 5.81 m/s, 198° | - | - |
| 1777967891 | 21.11° C | - | - | 0 mm | 4.47 m/s, 207° | - | - |
| 1777967592 | 21.11° C | - | - | 0 mm | 5.36 m/s, 186° | - | - |
| 1777967292 | 21.11° C | - | - | 0 mm | 4.47 m/s, 193° | - | - |
| 1777966990 | 21.11° C | - | - | 0 mm | 4.92 m/s, 204° | - | - |
| 1777966690 | 21.67° C | - | - | 0 mm | 5.81 m/s, 170° | - | - |
| 1777966391 | 21.67° C | - | - | 0 mm | 7.15 m/s, 183° | - | - |
| 1777966088 | 21.67° C | - | - | 0 mm | 5.81 m/s, 183° | - | - |
| 1777965789 | 21.67° C | - | - | 0 mm | 6.26 m/s, 195° | - | - |
| 1777965489 | 21.67° C | - | - | 0 mm | 6.71 m/s, 158° | - | - |
| 1777965187 | 21.67° C | - | - | 0 mm | 5.36 m/s, 184° | - | - |
* Rain latest hour (hover to see other rain measurements)
** Current wind speed in m/s (hover to see current wind gust speed)